sensor_id;sensor_type;location;lat;lon;timestamp;P1;durP1;ratioP1;P2;durP2;ratioP2
56239;SDS011;42154;51.992;5.896;2023-07-30T00:01:41;6.35;;;2.63;;
56239;SDS011;42154;51.992;5.896;2023-07-30T00:04:07;5.63;;;2.47;;
56239;SDS011;42154;51.992;5.896;2023-07-30T00:06:33;5.05;;;2.53;;
56239;SDS011;42154;51.992;5.896;2023-07-30T00:08:58;6.75;;;2.80;;
56239;SDS011;42154;51.992;5.896;2023-07-30T00:11:24;4.95;;;2.60;;
56239;SDS011;42154;51.992;5.896;2023-07-30T00:13:50;7.20;;;2.80;;
56239;SDS011;42154;51.992;5.896;2023-07-30T00:16:16;5.70;;;2.65;;
56239;SDS011;42154;51.992;5.896;2023-07-30T00:18:41;3.55;;;2.40;;
56239;SDS011;42154;51.992;5.896;2023-07-30T00:21:07;8.63;;;2.63;;
56239;SDS011;42154;51.992;5.896;2023-07-30T00:23:33;5.18;;;3.13;;
56239;SDS011;42154;51.992;5.896;2023-07-30T00:25:58;5.85;;;2.40;;
56239;SDS011;42154;51.992;5.896;2023-07-30T00:28:24;5.35;;;2.40;;
56239;SDS011;42154;51.992;5.896;2023-07-30T00:30:50;5.63;;;2.90;;
56239;SDS011;42154;51.992;5.896;2023-07-30T00:33:15;5.63;;;2.45;;
56239;SDS011;42154;51.992;5.896;2023-07-30T00:35:41;6.32;;;2.67;;
56239;SDS011;42154;51.992;5.896;2023-07-30T00:38:07;6.18;;;2.60;;
56239;SDS011;42154;51.992;5.896;2023-07-30T00:40:33;8.10;;;2.75;;
56239;SDS011;42154;51.992;5.896;2023-07-30T00:43:04;4.18;;;2.63;;
56239;SDS011;42154;51.992;5.896;2023-07-30T00:45:30;3.67;;;2.25;;
56239;SDS011;42154;51.992;5.896;2023-07-30T00:47:56;5.65;;;2.42;;
56239;SDS011;42154;51.992;5.896;2023-07-30T00:50:22;6.57;;;2.58;;
56239;SDS011;42154;51.992;5.896;2023-07-30T00:52:47;4.60;;;2.50;;
56239;SDS011;42154;51.992;5.896;2023-07-30T00:55:13;7.90;;;2.60;;
56239;SDS011;42154;51.992;5.896;2023-07-30T00:57:40;4.75;;;2.83;;
56239;SDS011;42154;51.992;5.896;2023-07-30T01:00:07;4.82;;;2.83;;
56239;SDS011;42154;51.992;5.896;2023-07-30T01:02:37;6.18;;;2.70;;
56239;SDS011;42154;51.992;5.896;2023-07-30T01:05:03;6.00;;;2.13;;
56239;SDS011;42154;51.992;5.896;2023-07-30T01:07:29;5.88;;;2.17;;
56239;SDS011;42154;51.992;5.896;2023-07-30T01:09:56;4.68;;;1.80;;
56239;SDS011;42154;51.992;5.896;2023-07-30T01:12:22;5.70;;;2.78;;
56239;SDS011;42154;51.992;5.896;2023-07-30T01:14:48;3.90;;;2.38;;
56239;SDS011;42154;51.992;5.896;2023-07-30T01:17:15;5.47;;;2.20;;
56239;SDS011;42154;51.992;5.896;2023-07-30T01:19:42;3.65;;;2.25;;
56239;SDS011;42154;51.992;5.896;2023-07-30T01:22:09;4.20;;;1.83;;
56239;SDS011;42154;51.992;5.896;2023-07-30T01:24:34;8.18;;;2.20;;
56239;SDS011;42154;51.992;5.896;2023-07-30T01:27:07;5.40;;;1.85;;
56239;SDS011;42154;51.992;5.896;2023-07-30T01:32:19;8.07;;;2.50;;
56239;SDS011;42154;51.992;5.896;2023-07-30T01:34:49;3.97;;;2.00;;
56239;SDS011;42154;51.992;5.896;2023-07-30T01:37:18;4.90;;;2.20;;
56239;SDS011;42154;51.992;5.896;2023-07-30T01:39:45;5.90;;;2.80;;
56239;SDS011;42154;51.992;5.896;2023-07-30T01:42:12;5.85;;;2.47;;
56239;SDS011;42154;51.992;5.896;2023-07-30T01:44:38;6.35;;;2.65;;
56239;SDS011;42154;51.992;5.896;2023-07-30T01:47:04;5.82;;;2.58;;
56239;SDS011;42154;51.992;5.896;2023-07-30T01:49:30;5.28;;;2.45;;
56239;SDS011;42154;51.992;5.896;2023-07-30T01:51:55;4.13;;;2.40;;
56239;SDS011;42154;51.992;5.896;2023-07-30T01:54:21;4.22;;;2.67;;
56239;SDS011;42154;51.992;5.896;2023-07-30T01:56:47;6.68;;;2.90;;
56239;SDS011;42154;51.992;5.896;2023-07-30T01:59:13;6.50;;;3.03;;
56239;SDS011;42154;51.992;5.896;2023-07-30T02:01:40;5.82;;;2.45;;
56239;SDS011;42154;51.992;5.896;2023-07-30T02:04:06;7.93;;;2.47;;
56239;SDS011;42154;51.992;5.896;2023-07-30T02:06:32;5.65;;;2.72;;
56239;SDS011;42154;51.992;5.896;2023-07-30T02:08:58;4.55;;;2.58;;
56239;SDS011;42154;51.992;5.896;2023-07-30T02:11:23;4.30;;;2.70;;
56239;SDS011;42154;51.992;5.896;2023-07-30T02:13:49;5.32;;;2.83;;
56239;SDS011;42154;51.992;5.896;2023-07-30T02:16:15;5.50;;;2.67;;
56239;SDS011;42154;51.992;5.896;2023-07-30T02:18:41;5.13;;;2.80;;
56239;SDS011;42154;51.992;5.896;2023-07-30T02:21:06;7.10;;;2.97;;
56239;SDS011;42154;51.992;5.896;2023-07-30T02:23:32;7.60;;;3.17;;
56239;SDS011;42154;51.992;5.896;2023-07-30T02:25:58;5.47;;;2.65;;
56239;SDS011;42154;51.992;5.896;2023-07-30T02:28:23;4.57;;;2.67;;
56239;SDS011;42154;51.992;5.896;2023-07-30T02:30:49;3.58;;;2.53;;
56239;SDS011;42154;51.992;5.896;2023-07-30T02:33:15;3.88;;;2.42;;
56239;SDS011;42154;51.992;5.896;2023-07-30T02:35:42;6.28;;;2.60;;
56239;SDS011;42154;51.992;5.896;2023-07-30T02:38:08;7.40;;;2.65;;
56239;SDS011;42154;51.992;5.896;2023-07-30T02:40:34;7.60;;;3.45;;
56239;SDS011;42154;51.992;5.896;2023-07-30T02:43:00;7.32;;;2.80;;
56239;SDS011;42154;51.992;5.896;2023-07-30T02:45:26;6.93;;;2.88;;
56239;SDS011;42154;51.992;5.896;2023-07-30T02:47:52;9.35;;;3.20;;
56239;SDS011;42154;51.992;5.896;2023-07-30T02:50:18;7.93;;;3.08;;
56239;SDS011;42154;51.992;5.896;2023-07-30T02:52:44;7.95;;;3.67;;
56239;SDS011;42154;51.992;5.896;2023-07-30T02:55:09;7.95;;;2.70;;
56239;SDS011;42154;51.992;5.896;2023-07-30T02:57:35;8.40;;;3.03;;
56239;SDS011;42154;51.992;5.896;2023-07-30T03:00:01;5.50;;;2.53;;
56239;SDS011;42154;51.992;5.896;2023-07-30T03:02:29;7.70;;;2.95;;
56239;SDS011;42154;51.992;5.896;2023-07-30T03:04:55;7.85;;;3.30;;
56239;SDS011;42154;51.992;5.896;2023-07-30T03:07:20;9.63;;;3.13;;
56239;SDS011;42154;51.992;5.896;2023-07-30T03:09:46;8.23;;;3.25;;
56239;SDS011;42154;51.992;5.896;2023-07-30T03:12:12;8.63;;;3.30;;
56239;SDS011;42154;51.992;5.896;2023-07-30T03:14:38;9.40;;;3.90;;
56239;SDS011;42154;51.992;5.896;2023-07-30T03:17:04;7.40;;;3.40;;
56239;SDS011;42154;51.992;5.896;2023-07-30T03:19:30;9.55;;;4.35;;
56239;SDS011;42154;51.992;5.896;2023-07-30T03:21:56;8.88;;;3.67;;
56239;SDS011;42154;51.992;5.896;2023-07-30T03:24:22;7.15;;;3.92;;
56239;SDS011;42154;51.992;5.896;2023-07-30T03:26:48;9.00;;;3.75;;
56239;SDS011;42154;51.992;5.896;2023-07-30T03:29:14;8.98;;;4.13;;
56239;SDS011;42154;51.992;5.896;2023-07-30T03:31:40;6.68;;;3.05;;
56239;SDS011;42154;51.992;5.896;2023-07-30T03:34:06;10.65;;;4.30;;
56239;SDS011;42154;51.992;5.896;2023-07-30T03:36:32;9.60;;;4.45;;
56239;SDS011;42154;51.992;5.896;2023-07-30T03:38:58;11.93;;;4.75;;
56239;SDS011;42154;51.992;5.896;2023-07-30T03:41:24;9.52;;;4.30;;
56239;SDS011;42154;51.992;5.896;2023-07-30T03:43:52;10.63;;;4.45;;
56239;SDS011;42154;51.992;5.896;2023-07-30T03:46:17;9.15;;;4.28;;
56239;SDS011;42154;51.992;5.896;2023-07-30T03:48:43;6.53;;;3.65;;
56239;SDS011;42154;51.992;5.896;2023-07-30T03:51:09;8.98;;;4.35;;
56239;SDS011;42154;51.992;5.896;2023-07-30T03:53:35;10.95;;;5.25;;
56239;SDS011;42154;51.992;5.896;2023-07-30T03:56:01;10.30;;;5.00;;
56239;SDS011;42154;51.992;5.896;2023-07-30T03:58:27;7.95;;;4.00;;
56239;SDS011;42154;51.992;5.896;2023-07-30T04:00:52;8.70;;;4.00;;
56239;SDS011;42154;51.992;5.896;2023-07-30T04:03:18;15.07;;;4.97;;
56239;SDS011;42154;51.992;5.896;2023-07-30T04:05:44;17.17;;;6.03;;
56239;SDS011;42154;51.992;5.896;2023-07-30T04:08:09;10.63;;;5.00;;
56239;SDS011;42154;51.992;5.896;2023-07-30T04:10:35;11.82;;;4.50;;
56239;SDS011;42154;51.992;5.896;2023-07-30T04:13:01;11.90;;;4.78;;
56239;SDS011;42154;51.992;5.896;2023-07-30T04:15:27;13.27;;;5.13;;
56239;SDS011;42154;51.992;5.896;2023-07-30T04:17:53;10.75;;;4.90;;
56239;SDS011;42154;51.992;5.896;2023-07-30T04:20:19;7.63;;;3.95;;
56239;SDS011;42154;51.992;5.896;2023-07-30T04:22:44;8.68;;;4.75;;
56239;SDS011;42154;51.992;5.896;2023-07-30T04:25:10;14.35;;;5.60;;
56239;SDS011;42154;51.992;5.896;2023-07-30T04:27:36;14.55;;;5.70;;
56239;SDS011;42154;51.992;5.896;2023-07-30T04:30:03;9.68;;;5.00;;
56239;SDS011;42154;51.992;5.896;2023-07-30T04:32:32;15.80;;;5.38;;
56239;SDS011;42154;51.992;5.896;2023-07-30T04:34:58;14.35;;;5.53;;
56239;SDS011;42154;51.992;5.896;2023-07-30T04:37:24;13.75;;;5.45;;
56239;SDS011;42154;51.992;5.896;2023-07-30T04:39:52;12.73;;;5.47;;
56239;SDS011;42154;51.992;5.896;2023-07-30T04:42:17;11.50;;;4.70;;
56239;SDS011;42154;51.992;5.896;2023-07-30T04:44:43;8.98;;;3.75;;
56239;SDS011;42154;51.992;5.896;2023-07-30T04:47:13;10.43;;;4.80;;
56239;SDS011;42154;51.992;5.896;2023-07-30T04:49:39;7.72;;;3.88;;
56239;SDS011;42154;51.992;5.896;2023-07-30T04:52:06;11.75;;;5.18;;
56239;SDS011;42154;51.992;5.896;2023-07-30T04:54:33;15.85;;;6.00;;
56239;SDS011;42154;51.992;5.896;2023-07-30T04:57:01;10.60;;;5.07;;
56239;SDS011;42154;51.992;5.896;2023-07-30T04:59:27;13.48;;;5.07;;
56239;SDS011;42154;51.992;5.896;2023-07-30T05:01:53;13.68;;;4.97;;
56239;SDS011;42154;51.992;5.896;2023-07-30T05:04:19;12.65;;;5.85;;
56239;SDS011;42154;51.992;5.896;2023-07-30T05:06:44;16.10;;;6.30;;
56239;SDS011;42154;51.992;5.896;2023-07-30T05:09:10;12.75;;;6.00;;
56239;SDS011;42154;51.992;5.896;2023-07-30T05:11:39;15.18;;;4.82;;
56239;SDS011;42154;51.992;5.896;2023-07-30T05:14:04;12.00;;;5.47;;
56239;SDS011;42154;51.992;5.896;2023-07-30T05:16:30;14.95;;;7.15;;
56239;SDS011;42154;51.992;5.896;2023-07-30T05:18:56;9.77;;;4.70;;
56239;SDS011;42154;51.992;5.896;2023-07-30T05:21:22;12.40;;;5.15;;
56239;SDS011;42154;51.992;5.896;2023-07-30T05:23:47;13.75;;;5.65;;
56239;SDS011;42154;51.992;5.896;2023-07-30T05:26:13;10.30;;;6.35;;
56239;SDS011;42154;51.992;5.896;2023-07-30T05:28:39;14.73;;;5.57;;
56239;SDS011;42154;51.992;5.896;2023-07-30T05:31:04;12.82;;;6.03;;
56239;SDS011;42154;51.992;5.896;2023-07-30T05:33:30;11.52;;;5.63;;
56239;SDS011;42154;51.992;5.896;2023-07-30T05:35:56;12.73;;;6.20;;
56239;SDS011;42154;51.992;5.896;2023-07-30T05:38:21;17.00;;;7.88;;
56239;SDS011;42154;51.992;5.896;2023-07-30T05:40:47;21.80;;;7.60;;
56239;SDS011;42154;51.992;5.896;2023-07-30T05:43:13;16.50;;;6.55;;
56239;SDS011;42154;51.992;5.896;2023-07-30T05:45:39;13.80;;;6.90;;
56239;SDS011;42154;51.992;5.896;2023-07-30T05:48:04;14.15;;;7.80;;
56239;SDS011;42154;51.992;5.896;2023-07-30T05:50:30;14.05;;;7.20;;
56239;SDS011;42154;51.992;5.896;2023-07-30T05:52:56;18.50;;;7.82;;
56239;SDS011;42154;51.992;5.896;2023-07-30T05:55:22;15.02;;;6.40;;
56239;SDS011;42154;51.992;5.896;2023-07-30T05:57:47;19.73;;;8.32;;
56239;SDS011;42154;51.992;5.896;2023-07-30T06:00:13;17.02;;;7.30;;
56239;SDS011;42154;51.992;5.896;2023-07-30T06:02:39;16.30;;;7.28;;
56239;SDS011;42154;51.992;5.896;2023-07-30T06:05:05;14.02;;;6.53;;
56239;SDS011;42154;51.992;5.896;2023-07-30T06:07:31;20.77;;;7.88;;
56239;SDS011;42154;51.992;5.896;2023-07-30T06:09:56;16.88;;;8.25;;
56239;SDS011;42154;51.992;5.896;2023-07-30T06:12:22;20.52;;;8.85;;
56239;SDS011;42154;51.992;5.896;2023-07-30T06:14:48;19.17;;;8.73;;
56239;SDS011;42154;51.992;5.896;2023-07-30T06:17:13;21.20;;;10.05;;
56239;SDS011;42154;51.992;5.896;2023-07-30T06:19:39;23.15;;;8.60;;
56239;SDS011;42154;51.992;5.896;2023-07-30T06:22:05;21.27;;;9.05;;
56239;SDS011;42154;51.992;5.896;2023-07-30T06:24:31;16.98;;;7.18;;
56239;SDS011;42154;51.992;5.896;2023-07-30T06:26:56;21.48;;;8.60;;
56239;SDS011;42154;51.992;5.896;2023-07-30T06:29:22;19.35;;;8.48;;
56239;SDS011;42154;51.992;5.896;2023-07-30T06:31:48;22.80;;;9.80;;
56239;SDS011;42154;51.992;5.896;2023-07-30T06:34:14;16.27;;;8.68;;
56239;SDS011;42154;51.992;5.896;2023-07-30T06:36:39;19.00;;;9.57;;
56239;SDS011;42154;51.992;5.896;2023-07-30T06:39:05;22.67;;;9.35;;
56239;SDS011;42154;51.992;5.896;2023-07-30T06:41:31;20.73;;;9.63;;
56239;SDS011;42154;51.992;5.896;2023-07-30T06:43:57;24.05;;;10.07;;
56239;SDS011;42154;51.992;5.896;2023-07-30T06:46:23;18.13;;;8.68;;
56239;SDS011;42154;51.992;5.896;2023-07-30T06:48:49;18.00;;;7.70;;
56239;SDS011;42154;51.992;5.896;2023-07-30T06:51:18;17.85;;;9.10;;
56239;SDS011;42154;51.992;5.896;2023-07-30T06:53:44;20.93;;;9.33;;
56239;SDS011;42154;51.992;5.896;2023-07-30T06:56:10;22.42;;;9.00;;
56239;SDS011;42154;51.992;5.896;2023-07-30T06:58:36;20.58;;;9.70;;
56239;SDS011;42154;51.992;5.896;2023-07-30T07:01:01;21.35;;;8.43;;
56239;SDS011;42154;51.992;5.896;2023-07-30T07:03:27;20.10;;;7.60;;
56239;SDS011;42154;51.992;5.896;2023-07-30T07:05:53;21.10;;;9.10;;
56239;SDS011;42154;51.992;5.896;2023-07-30T07:08:20;21.63;;;9.50;;
56239;SDS011;42154;51.992;5.896;2023-07-30T07:10:46;18.83;;;8.70;;
56239;SDS011;42154;51.992;5.896;2023-07-30T07:13:12;23.85;;;9.40;;
56239;SDS011;42154;51.992;5.896;2023-07-30T07:15:43;12.77;;;7.80;;
56239;SDS011;42154;51.992;5.896;2023-07-30T07:18:09;16.00;;;8.38;;
56239;SDS011;42154;51.992;5.896;2023-07-30T07:20:35;19.25;;;9.32;;
56239;SDS011;42154;51.992;5.896;2023-07-30T07:23:02;22.30;;;9.70;;
56239;SDS011;42154;51.992;5.896;2023-07-30T07:25:28;17.48;;;8.55;;
56239;SDS011;42154;51.992;5.896;2023-07-30T07:27:54;23.15;;;9.32;;
56239;SDS011;42154;51.992;5.896;2023-07-30T07:30:20;19.20;;;8.80;;
56239;SDS011;42154;51.992;5.896;2023-07-30T07:32:46;15.68;;;9.00;;
56239;SDS011;42154;51.992;5.896;2023-07-30T07:35:15;17.92;;;9.05;;
56239;SDS011;42154;51.992;5.896;2023-07-30T07:37:43;28.58;;;10.57;;
56239;SDS011;42154;51.992;5.896;2023-07-30T07:40:09;20.42;;;10.20;;
56239;SDS011;42154;51.992;5.896;2023-07-30T07:42:35;20.52;;;8.70;;
56239;SDS011;42154;51.992;5.896;2023-07-30T07:45:01;19.38;;;8.55;;
56239;SDS011;42154;51.992;5.896;2023-07-30T07:47:27;16.77;;;8.90;;
56239;SDS011;42154;51.992;5.896;2023-07-30T07:49:52;15.93;;;8.05;;
56239;SDS011;42154;51.992;5.896;2023-07-30T07:52:19;21.98;;;8.60;;
56239;SDS011;42154;51.992;5.896;2023-07-30T07:54:45;18.73;;;7.43;;
56239;SDS011;42154;51.992;5.896;2023-07-30T07:57:11;20.33;;;7.00;;
56239;SDS011;42154;51.992;5.896;2023-07-30T07:59:37;19.95;;;6.43;;
56239;SDS011;42154;51.992;5.896;2023-07-30T08:02:03;18.60;;;6.32;;
56239;SDS011;42154;51.992;5.896;2023-07-30T08:04:29;16.13;;;7.35;;
56239;SDS011;42154;51.992;5.896;2023-07-30T08:06:54;14.60;;;6.00;;
56239;SDS011;42154;51.992;5.896;2023-07-30T08:09:25;11.88;;;6.15;;
56239;SDS011;42154;51.992;5.896;2023-07-30T08:11:50;13.80;;;5.70;;
56239;SDS011;42154;51.992;5.896;2023-07-30T08:14:16;13.63;;;5.18;;
56239;SDS011;42154;51.992;5.896;2023-07-30T08:16:42;15.68;;;5.93;;
56239;SDS011;42154;51.992;5.896;2023-07-30T08:19:07;17.55;;;5.80;;
56239;SDS011;42154;51.992;5.896;2023-07-30T08:21:33;15.60;;;5.63;;
56239;SDS011;42154;51.992;5.896;2023-07-30T08:23:59;17.55;;;6.40;;
56239;SDS011;42154;51.992;5.896;2023-07-30T08:26:24;15.27;;;5.15;;
56239;SDS011;42154;51.992;5.896;2023-07-30T08:28:52;17.33;;;5.65;;
56239;SDS011;42154;51.992;5.896;2023-07-30T08:31:17;14.23;;;5.45;;
56239;SDS011;42154;51.992;5.896;2023-07-30T08:33:43;13.75;;;6.43;;
56239;SDS011;42154;51.992;5.896;2023-07-30T08:36:09;16.27;;;5.38;;
56239;SDS011;42154;51.992;5.896;2023-07-30T08:38:34;14.88;;;5.70;;
56239;SDS011;42154;51.992;5.896;2023-07-30T08:41:00;14.68;;;6.28;;
56239;SDS011;42154;51.992;5.896;2023-07-30T08:43:26;17.48;;;6.15;;
56239;SDS011;42154;51.992;5.896;2023-07-30T08:45:52;10.93;;;5.95;;
56239;SDS011;42154;51.992;5.896;2023-07-30T08:48:18;14.93;;;5.82;;
56239;SDS011;42154;51.992;5.896;2023-07-30T08:50:43;17.52;;;6.43;;
56239;SDS011;42154;51.992;5.896;2023-07-30T08:53:10;20.48;;;7.00;;
56239;SDS011;42154;51.992;5.896;2023-07-30T08:55:37;14.43;;;6.00;;
56239;SDS011;42154;51.992;5.896;2023-07-30T08:58:05;12.68;;;5.53;;
56239;SDS011;42154;51.992;5.896;2023-07-30T09:00:34;17.60;;;6.22;;
56239;SDS011;42154;51.992;5.896;2023-07-30T09:03:03;11.63;;;4.60;;
56239;SDS011;42154;51.992;5.896;2023-07-30T09:05:30;12.30;;;4.82;;
56239;SDS011;42154;51.992;5.896;2023-07-30T09:07:56;12.73;;;4.20;;
56239;SDS011;42154;51.992;5.896;2023-07-30T09:10:22;11.85;;;4.20;;
56239;SDS011;42154;51.992;5.896;2023-07-30T09:12:52;16.80;;;4.93;;
56239;SDS011;42154;51.992;5.896;2023-07-30T09:15:20;13.75;;;4.35;;
56239;SDS011;42154;51.992;5.896;2023-07-30T09:18:04;13.20;;;4.07;;
56239;SDS011;42154;51.992;5.896;2023-07-30T09:20:37;13.50;;;4.15;;
56239;SDS011;42154;51.992;5.896;2023-07-30T09:23:04;15.07;;;3.97;;
56239;SDS011;42154;51.992;5.896;2023-07-30T09:25:32;13.93;;;3.95;;
56239;SDS011;42154;51.992;5.896;2023-07-30T09:27:58;12.35;;;3.25;;
56239;SDS011;42154;51.992;5.896;2023-07-30T09:30:24;10.95;;;3.42;;
56239;SDS011;42154;51.992;5.896;2023-07-30T09:32:54;14.05;;;4.18;;
56239;SDS011;42154;51.992;5.896;2023-07-30T09:35:22;10.35;;;2.90;;
56239;SDS011;42154;51.992;5.896;2023-07-30T09:37:58;13.57;;;3.45;;
56239;SDS011;42154;51.992;5.896;2023-07-30T09:40:32;10.23;;;3.10;;
56239;SDS011;42154;51.992;5.896;2023-07-30T09:42:59;13.25;;;3.63;;
56239;SDS011;42154;51.992;5.896;2023-07-30T09:45:25;8.73;;;3.15;;
56239;SDS011;42154;51.992;5.896;2023-07-30T09:47:52;10.25;;;2.92;;
56239;SDS011;42154;51.992;5.896;2023-07-30T09:50:19;11.20;;;3.50;;
56239;SDS011;42154;51.992;5.896;2023-07-30T09:52:45;9.65;;;2.80;;
56239;SDS011;42154;51.992;5.896;2023-07-30T09:55:11;5.63;;;2.38;;
56239;SDS011;42154;51.992;5.896;2023-07-30T09:57:37;13.45;;;2.85;;
56239;SDS011;42154;51.992;5.896;2023-07-30T10:00:04;12.57;;;3.95;;
56239;SDS011;42154;51.992;5.896;2023-07-30T10:02:35;11.60;;;3.42;;
56239;SDS011;42154;51.992;5.896;2023-07-30T10:05:06;9.93;;;2.47;;
56239;SDS011;42154;51.992;5.896;2023-07-30T10:07:37;11.50;;;3.00;;
56239;SDS011;42154;51.992;5.896;2023-07-30T10:12:34;13.85;;;3.25;;
56239;SDS011;42154;51.992;5.896;2023-07-30T10:15:01;9.50;;;2.45;;
56239;SDS011;42154;51.992;5.896;2023-07-30T10:17:27;8.18;;;2.58;;
56239;SDS011;42154;51.992;5.896;2023-07-30T10:19:56;10.05;;;2.67;;
56239;SDS011;42154;51.992;5.896;2023-07-30T10:22:22;12.35;;;3.33;;
56239;SDS011;42154;51.992;5.896;2023-07-30T10:24:59;8.45;;;2.45;;
56239;SDS011;42154;51.992;5.896;2023-07-30T10:27:35;10.52;;;2.50;;
56239;SDS011;42154;51.992;5.896;2023-07-30T10:33:09;6.82;;;1.65;;
56239;SDS011;42154;51.992;5.896;2023-07-30T10:35:44;7.82;;;1.98;;
56239;SDS011;42154;51.992;5.896;2023-07-30T10:38:21;7.75;;;2.08;;
56239;SDS011;42154;51.992;5.896;2023-07-30T10:43:39;6.95;;;1.48;;
56239;SDS011;42154;51.992;5.896;2023-07-30T10:46:06;10.57;;;2.50;;
56239;SDS011;42154;51.992;5.896;2023-07-30T10:48:40;7.35;;;1.70;;
56239;SDS011;42154;51.992;5.896;2023-07-30T10:51:09;6.68;;;1.85;;
56239;SDS011;42154;51.992;5.896;2023-07-30T10:53:36;8.38;;;1.63;;
56239;SDS011;42154;51.992;5.896;2023-07-30T10:56:02;7.20;;;2.25;;
56239;SDS011;42154;51.992;5.896;2023-07-30T10:58:33;5.75;;;1.50;;
56239;SDS011;42154;51.992;5.896;2023-07-30T11:01:04;7.40;;;1.40;;
56239;SDS011;42154;51.992;5.896;2023-07-30T11:05:57;8.02;;;1.30;;
56239;SDS011;42154;51.992;5.896;2023-07-30T11:08:33;6.53;;;1.55;;
56239;SDS011;42154;51.992;5.896;2023-07-30T11:10:59;4.32;;;1.27;;
56239;SDS011;42154;51.992;5.896;2023-07-30T11:13:25;9.98;;;2.17;;
56239;SDS011;42154;51.992;5.896;2023-07-30T11:15:51;7.18;;;1.60;;
56239;SDS011;42154;51.992;5.896;2023-07-30T11:18:17;5.50;;;1.50;;
56239;SDS011;42154;51.992;5.896;2023-07-30T11:20:43;6.82;;;1.60;;
56239;SDS011;42154;51.992;5.896;2023-07-30T11:23:18;5.50;;;1.40;;
56239;SDS011;42154;51.992;5.896;2023-07-30T11:25:45;6.45;;;1.52;;
56239;SDS011;42154;51.992;5.896;2023-07-30T11:28:12;4.22;;;1.15;;
56239;SDS011;42154;51.992;5.896;2023-07-30T11:30:38;5.45;;;1.20;;
56239;SDS011;42154;51.992;5.896;2023-07-30T11:33:03;7.53;;;2.00;;
56239;SDS011;42154;51.992;5.896;2023-07-30T11:35:29;6.15;;;1.50;;
56239;SDS011;42154;51.992;5.896;2023-07-30T11:37:55;5.47;;;1.30;;
56239;SDS011;42154;51.992;5.896;2023-07-30T11:40:22;5.88;;;1.55;;
56239;SDS011;42154;51.992;5.896;2023-07-30T11:42:49;4.22;;;1.27;;
56239;SDS011;42154;51.992;5.896;2023-07-30T11:45:18;7.95;;;1.40;;
56239;SDS011;42154;51.992;5.896;2023-07-30T11:47:46;5.68;;;1.23;;
56239;SDS011;42154;51.992;5.896;2023-07-30T11:50:12;4.53;;;1.10;;
56239;SDS011;42154;51.992;5.896;2023-07-30T11:52:53;3.03;;;1.00;;
56239;SDS011;42154;51.992;5.896;2023-07-30T11:55:21;7.43;;;1.60;;
56239;SDS011;42154;51.992;5.896;2023-07-30T11:57:49;4.18;;;1.13;;
56239;SDS011;42154;51.992;5.896;2023-07-30T12:00:15;4.93;;;1.65;;
56239;SDS011;42154;51.992;5.896;2023-07-30T12:02:41;6.50;;;1.35;;
56239;SDS011;42154;51.992;5.896;2023-07-30T12:05:09;4.00;;;1.25;;
56239;SDS011;42154;51.992;5.896;2023-07-30T12:07:39;7.95;;;1.45;;
56239;SDS011;42154;51.992;5.896;2023-07-30T12:10:07;6.70;;;1.20;;
56239;SDS011;42154;51.992;5.896;2023-07-30T12:12:43;5.20;;;1.73;;
56239;SDS011;42154;51.992;5.896;2023-07-30T12:15:10;5.15;;;1.20;;
56239;SDS011;42154;51.992;5.896;2023-07-30T12:17:39;4.80;;;1.02;;
56239;SDS011;42154;51.992;5.896;2023-07-30T12:20:05;3.45;;;1.10;;
56239;SDS011;42154;51.992;5.896;2023-07-30T12:22:32;5.47;;;1.25;;
56239;SDS011;42154;51.992;5.896;2023-07-30T12:25:03;4.28;;;0.82;;
56239;SDS011;42154;51.992;5.896;2023-07-30T12:27:30;2.72;;;1.08;;
56239;SDS011;42154;51.992;5.896;2023-07-30T12:29:55;6.90;;;1.15;;
56239;SDS011;42154;51.992;5.896;2023-07-30T12:32:21;5.28;;;1.23;;
56239;SDS011;42154;51.992;5.896;2023-07-30T12:34:47;4.03;;;0.85;;
56239;SDS011;42154;51.992;5.896;2023-07-30T12:37:13;3.25;;;1.00;;
56239;SDS011;42154;51.992;5.896;2023-07-30T12:39:39;4.88;;;1.40;;
56239;SDS011;42154;51.992;5.896;2023-07-30T12:42:04;3.97;;;1.20;;
56239;SDS011;42154;51.992;5.896;2023-07-30T12:44:30;3.30;;;1.10;;
56239;SDS011;42154;51.992;5.896;2023-07-30T12:46:56;4.63;;;1.10;;
56239;SDS011;42154;51.992;5.896;2023-07-30T12:49:21;4.85;;;1.13;;
56239;SDS011;42154;51.992;5.896;2023-07-30T12:51:47;3.15;;;0.88;;
56239;SDS011;42154;51.992;5.896;2023-07-30T12:54:13;3.35;;;0.82;;
56239;SDS011;42154;51.992;5.896;2023-07-30T12:56:39;2.03;;;0.60;;
56239;SDS011;42154;51.992;5.896;2023-07-30T12:59:04;2.55;;;0.85;;
56239;SDS011;42154;51.992;5.896;2023-07-30T13:01:30;5.47;;;0.90;;
56239;SDS011;42154;51.992;5.896;2023-07-30T13:03:56;4.38;;;0.93;;
56239;SDS011;42154;51.992;5.896;2023-07-30T13:06:21;2.13;;;0.88;;
56239;SDS011;42154;51.992;5.896;2023-07-30T13:08:47;2.53;;;0.90;;
56239;SDS011;42154;51.992;5.896;2023-07-30T13:11:13;5.97;;;1.23;;
56239;SDS011;42154;51.992;5.896;2023-07-30T13:13:39;3.63;;;0.90;;
56239;SDS011;42154;51.992;5.896;2023-07-30T13:16:05;5.63;;;0.98;;
56239;SDS011;42154;51.992;5.896;2023-07-30T13:18:31;4.28;;;1.02;;
56239;SDS011;42154;51.992;5.896;2023-07-30T13:20:58;2.53;;;0.80;;
56239;SDS011;42154;51.992;5.896;2023-07-30T13:23:23;3.85;;;0.77;;
56239;SDS011;42154;51.992;5.896;2023-07-30T13:25:54;4.38;;;0.98;;
56239;SDS011;42154;51.992;5.896;2023-07-30T13:28:19;5.07;;;1.83;;
56239;SDS011;42154;51.992;5.896;2023-07-30T13:30:45;5.20;;;0.93;;
56239;SDS011;42154;51.992;5.896;2023-07-30T13:33:11;4.40;;;1.02;;
56239;SDS011;42154;51.992;5.896;2023-07-30T13:35:36;4.53;;;1.17;;
56239;SDS011;42154;51.992;5.896;2023-07-30T13:38:02;3.78;;;0.65;;
56239;SDS011;42154;51.992;5.896;2023-07-30T13:40:28;3.95;;;0.90;;
56239;SDS011;42154;51.992;5.896;2023-07-30T13:42:53;3.17;;;0.60;;
56239;SDS011;42154;51.992;5.896;2023-07-30T13:45:19;3.78;;;0.60;;
56239;SDS011;42154;51.992;5.896;2023-07-30T13:47:45;4.63;;;0.80;;
56239;SDS011;42154;51.992;5.896;2023-07-30T13:50:11;4.15;;;0.80;;
56239;SDS011;42154;51.992;5.896;2023-07-30T13:52:36;2.35;;;0.75;;
56239;SDS011;42154;51.992;5.896;2023-07-30T13:55:02;2.63;;;0.70;;
56239;SDS011;42154;51.992;5.896;2023-07-30T13:57:28;4.70;;;0.70;;
56239;SDS011;42154;51.992;5.896;2023-07-30T13:59:54;2.50;;;0.82;;
56239;SDS011;42154;51.992;5.896;2023-07-30T14:02:19;3.92;;;0.80;;
56239;SDS011;42154;51.992;5.896;2023-07-30T14:04:45;2.72;;;0.70;;
56239;SDS011;42154;51.992;5.896;2023-07-30T14:07:11;3.03;;;0.80;;
56239;SDS011;42154;51.992;5.896;2023-07-30T14:09:37;6.38;;;1.00;;
56239;SDS011;42154;51.992;5.896;2023-07-30T14:12:03;1.95;;;0.65;;
56239;SDS011;42154;51.992;5.896;2023-07-30T14:14:29;3.83;;;0.80;;
56239;SDS011;42154;51.992;5.896;2023-07-30T14:16:55;4.57;;;0.90;;
56239;SDS011;42154;51.992;5.896;2023-07-30T14:19:20;3.08;;;0.73;;
56239;SDS011;42154;51.992;5.896;2023-07-30T14:21:46;5.68;;;1.15;;
56239;SDS011;42154;51.992;5.896;2023-07-30T14:24:12;2.67;;;0.80;;
56239;SDS011;42154;51.992;5.896;2023-07-30T14:26:39;3.15;;;1.05;;
56239;SDS011;42154;51.992;5.896;2023-07-30T14:29:05;2.38;;;0.98;;
56239;SDS011;42154;51.992;5.896;2023-07-30T14:31:31;3.85;;;1.20;;
56239;SDS011;42154;51.992;5.896;2023-07-30T14:33:57;4.47;;;0.90;;
56239;SDS011;42154;51.992;5.896;2023-07-30T14:36:23;2.65;;;1.20;;
56239;SDS011;42154;51.992;5.896;2023-07-30T14:38:48;1.48;;;0.70;;
56239;SDS011;42154;51.992;5.896;2023-07-30T14:41:14;3.65;;;0.80;;
56239;SDS011;42154;51.992;5.896;2023-07-30T14:43:40;6.63;;;1.27;;
56239;SDS011;42154;51.992;5.896;2023-07-30T14:46:06;2.92;;;0.88;;
56239;SDS011;42154;51.992;5.896;2023-07-30T14:48:38;4.88;;;0.70;;
56239;SDS011;42154;51.992;5.896;2023-07-30T14:51:06;3.45;;;1.00;;
56239;SDS011;42154;51.992;5.896;2023-07-30T14:53:32;4.95;;;1.13;;